createdAt,value
2022-11-16T00:02:41.984Z,54.82
2022-11-16T00:07:44.016Z,54.71
2022-11-16T00:12:46.258Z,54.69
2022-11-16T00:17:48.313Z,54.63
2022-11-16T00:22:50.287Z,54.71
2022-11-16T00:27:52.306Z,54.79
2022-11-16T00:32:54.364Z,54.93
2022-11-16T00:37:56.514Z,54.70
2022-11-16T00:42:58.594Z,54.75
2022-11-16T00:48:00.941Z,54.70
2022-11-16T00:53:05.279Z,54.86
2022-11-16T00:58:07.326Z,54.75
2022-11-16T01:03:10.156Z,54.33
2022-11-16T01:08:12.314Z,54.32
2022-11-16T01:13:14.460Z,54.56
2022-11-16T01:18:19.557Z,54.59
2022-11-16T01:23:21.713Z,54.54
2022-11-16T01:28:23.775Z,54.75
2022-11-16T01:33:27.147Z,54.80
2022-11-16T01:38:30.239Z,54.83
2022-11-16T01:43:58.450Z,54.61
2022-11-16T01:49:17.253Z,54.55
2022-11-16T01:54:20.281Z,54.44
2022-11-16T01:59:30.942Z,54.36
2022-11-16T02:04:34.201Z,54.27
2022-11-16T02:10:08.878Z,54.25
2022-11-16T02:15:34.040Z,54.24
2022-11-16T02:21:10.568Z,54.13
2022-11-16T02:26:26.081Z,54.22
2022-11-16T02:31:37.039Z,54.27
2022-11-16T02:36:41.841Z,54.01
2022-11-16T02:41:48.236Z,54.01
2022-11-16T02:46:57.006Z,54.29
2022-11-16T02:51:59.379Z,54.48
2022-11-16T02:57:04.375Z,54.09
2022-11-16T03:02:14.208Z,54.02
2022-11-16T03:07:20.688Z,54.15
2022-11-16T03:12:29.591Z,54.44
2022-11-16T03:17:49.162Z,54.34
2022-11-16T03:22:56.923Z,54.47
2022-11-16T03:28:25.497Z,54.53
2022-11-16T03:33:46.233Z,54.69
2022-11-16T03:38:53.051Z,54.79
2022-11-16T03:43:58.130Z,54.75
2022-11-16T03:49:01.763Z,54.48
2022-11-16T03:54:08.162Z,54.65
2022-11-16T03:59:11.278Z,54.88
2022-11-16T04:04:34.143Z,55.05
2022-11-16T04:09:55.410Z,55.36
2022-11-16T04:15:16.305Z,55.85
2022-11-16T04:20:37.335Z,56.14
2022-11-16T04:25:42.183Z,56.71
2022-11-16T04:31:11.616Z,56.24
2022-11-16T04:36:35.273Z,56.41
2022-11-16T04:41:56.128Z,57.02
2022-11-16T04:47:07.391Z,57.03
2022-11-16T04:52:12.156Z,57.71
2022-11-16T04:57:15.083Z,58.11
2022-11-16T05:02:17.899Z,58.69
2022-11-16T05:07:38.472Z,59.32
2022-11-16T05:12:46.744Z,59.53
2022-11-16T05:17:51.243Z,60.15
2022-11-16T05:22:58.553Z,60.43
2022-11-16T05:28:05.697Z,60.22
2022-11-16T05:33:11.158Z,60.63
2022-11-16T05:38:16.561Z,60.84
2022-11-16T05:43:22.131Z,60.91
2022-11-16T05:48:36.075Z,61.31
2022-11-16T05:53:40.595Z,61.43
2022-11-16T05:58:43.828Z,61.34
2022-11-16T06:03:45.905Z,61.08
2022-11-16T06:08:48.185Z,60.61
2022-11-16T06:13:55.888Z,60.12
2022-11-16T06:18:58.132Z,60.26
2022-11-16T06:24:00.496Z,60.53
2022-11-16T06:29:03.069Z,60.28
2022-11-16T06:34:05.238Z,60.32
2022-11-16T06:39:07.421Z,60.20
2022-11-16T06:44:12.270Z,59.86
2022-11-16T06:49:21.473Z,59.55
2022-11-16T06:54:25.629Z,59.25
2022-11-16T06:59:27.938Z,59.04
2022-11-16T07:04:31.676Z,58.79
2022-11-16T07:09:34.457Z,58.86
2022-11-16T07:14:36.704Z,58.76
2022-11-16T07:19:40.894Z,58.92
2022-11-16T07:24:43.057Z,58.70
2022-11-16T07:29:46.031Z,58.57
2022-11-16T07:34:59.569Z,58.53
2022-11-16T07:40:04.446Z,58.38
2022-11-16T07:45:07.469Z,57.92
2022-11-16T07:50:14.607Z,57.98
2022-11-16T07:55:17.006Z,57.33
2022-11-16T08:00:24.720Z,57.36
2022-11-16T08:05:34.516Z,56.81
2022-11-16T08:10:37.249Z,56.57
2022-11-16T08:15:39.506Z,56.59
2022-11-16T08:20:45.430Z,56.67
2022-11-16T08:25:47.483Z,56.49
2022-11-16T08:30:53.803Z,56.34
2022-11-16T08:35:57.394Z,56.50
2022-11-16T08:41:00.688Z,56.46
2022-11-16T08:46:03.521Z,56.25
2022-11-16T08:51:23.783Z,56.02
2022-11-16T08:56:33.942Z,56.28
2022-11-16T09:01:36.388Z,56.31
2022-11-16T09:06:38.508Z,56.08
2022-11-16T09:11:40.799Z,55.73
2022-11-16T09:16:42.857Z,55.72
2022-11-16T09:21:45.871Z,55.84
2022-11-16T09:26:48.436Z,55.66
2022-11-16T09:31:50.478Z,55.62
2022-11-16T09:36:52.466Z,55.70
2022-11-16T09:42:12.454Z,55.99
2022-11-16T09:47:40.906Z,55.99
2022-11-16T09:52:46.921Z,55.92
2022-11-16T09:57:52.706Z,55.82
2022-11-16T10:03:14.777Z,55.65
2022-11-16T10:08:22.963Z,55.58
2022-11-16T10:13:46.719Z,55.40
2022-11-16T10:19:11.890Z,55.52
2022-11-16T10:24:26.335Z,55.60
2022-11-16T10:29:48.803Z,55.71
2022-11-16T10:35:15.396Z,55.60
2022-11-16T10:40:29.525Z,55.42
2022-11-16T10:45:52.332Z,55.36
2022-11-16T10:50:54.848Z,55.63
2022-11-16T10:56:15.186Z,55.37
2022-11-16T11:01:31.035Z,55.03
2022-11-16T11:06:33.259Z,54.95
2022-11-16T11:11:53.846Z,54.89
2022-11-16T11:16:55.930Z,55.12
2022-11-16T11:22:01.304Z,54.80
2022-11-16T11:27:03.682Z,55.22
2022-11-16T11:32:08.221Z,55.54
2022-11-16T11:37:21.353Z,55.81
2022-11-16T11:42:23.976Z,55.89
2022-11-16T11:48:21.434Z,56.36
2022-11-16T11:53:46.021Z,56.37
2022-11-16T11:58:49.344Z,56.87
2022-11-16T12:04:21.961Z,57.08
2022-11-16T12:09:49.597Z,57.20
2022-11-16T12:15:19.227Z,57.25
2022-11-16T12:20:39.808Z,57.39
2022-11-16T12:25:56.454Z,57.26
2022-11-16T12:31:22.896Z,57.18
2022-11-16T12:36:51.266Z,57.02
2022-11-16T12:41:53.346Z,56.65
2022-11-16T12:47:20.181Z,56.56
2022-11-16T12:52:50.887Z,56.45
2022-11-16T12:58:07.407Z,56.52
2022-11-16T13:03:12.326Z,56.33
2022-11-16T13:08:36.891Z,56.20
2022-11-16T13:13:40.837Z,55.91
2022-11-16T13:18:44.539Z,56.02
2022-11-16T13:24:10.714Z,56.18
2022-11-16T13:29:22.980Z,56.38
2022-11-16T13:34:29.497Z,56.56
2022-11-16T13:39:59.265Z,56.98
2022-11-16T13:45:20.073Z,57.54
2022-11-16T13:50:26.400Z,57.44
2022-11-16T13:55:31.293Z,57.19
2022-11-16T14:00:36.536Z,57.15
2022-11-16T14:05:42.011Z,57.20
2022-11-16T14:10:52.746Z,57.07
2022-11-16T14:16:22.884Z,56.75
2022-11-16T14:21:47.876Z,57.10
2022-11-16T14:26:52.846Z,57.29
2022-11-16T14:31:57.743Z,57.37
2022-11-16T14:37:00.666Z,57.70
2022-11-16T14:42:07.469Z,57.74
2022-11-16T14:47:24.928Z,58.11
2022-11-16T14:52:47.823Z,58.31
2022-11-16T14:57:49.921Z,58.15
2022-11-16T15:03:00.933Z,58.12
2022-11-16T15:08:15.511Z,58.03
2022-11-16T15:13:22.990Z,58.24
2022-11-16T15:18:25.092Z,58.21
2022-11-16T15:23:30.650Z,58.05
2022-11-16T15:28:34.227Z,58.12
2022-11-16T15:33:41.469Z,58.46
2022-11-16T15:38:43.615Z,57.98
2022-11-16T15:44:12.358Z,57.70
2022-11-16T15:49:33.820Z,57.76
2022-11-16T15:54:59.003Z,57.52
2022-11-16T16:00:00.996Z,57.26
2022-11-16T16:05:03.233Z,56.96
2022-11-16T16:10:20.348Z,57.02
2022-11-16T16:15:27.575Z,56.87
2022-11-16T16:20:32.657Z,56.85
2022-11-16T16:25:36.102Z,57.02
2022-11-16T16:30:39.565Z,56.94
2022-11-16T16:35:41.485Z,56.97
2022-11-16T16:40:43.564Z,56.90
2022-11-16T16:45:45.741Z,56.55
2022-11-16T16:50:47.866Z,56.90
2022-11-16T16:55:49.891Z,56.92
2022-11-16T17:00:53.716Z,56.96
2022-11-16T17:06:02.251Z,57.04
2022-11-16T17:11:04.611Z,56.81
2022-11-16T17:16:07.531Z,56.55
2022-11-16T17:21:09.950Z,56.44
2022-11-16T17:26:12.160Z,56.31
2022-11-16T17:31:15.175Z,55.96
2022-11-16T17:36:18.156Z,56.13
2022-11-16T17:41:24.916Z,56.01
2022-11-16T17:46:27.021Z,55.85
2022-11-16T17:51:31.773Z,55.82
2022-11-16T17:56:34.186Z,55.75
2022-11-16T18:01:36.237Z,55.83
2022-11-16T18:06:38.649Z,55.76
2022-11-16T18:11:40.871Z,55.70
2022-11-16T18:16:43.740Z,55.73
2022-11-16T18:21:47.117Z,55.76
2022-11-16T18:26:49.180Z,55.63
2022-11-16T18:31:51.341Z,55.62
2022-11-16T18:36:53.404Z,55.42
2022-11-16T18:41:56.282Z,55.61
2022-11-16T18:46:58.267Z,55.11
2022-11-16T18:52:00.431Z,54.91
2022-11-16T18:57:02.411Z,54.83
2022-11-16T19:02:04.435Z,54.95
2022-11-16T19:07:07.437Z,54.91
2022-11-16T19:12:09.677Z,54.64
2022-11-16T19:17:11.904Z,54.58
2022-11-16T19:22:13.958Z,54.55
2022-11-16T19:27:16.938Z,54.80
2022-11-16T19:32:18.918Z,54.46
2022-11-16T19:37:21.190Z,54.37
2022-11-16T19:42:23.275Z,54.44
2022-11-16T19:47:26.695Z,54.39
2022-11-16T19:52:29.122Z,54.54
2022-11-16T19:57:31.132Z,54.36
2022-11-16T20:02:33.313Z,54.33
2022-11-16T20:07:38.970Z,54.14
2022-11-16T20:12:41.595Z,54.33
2022-11-16T20:17:43.784Z,54.04
2022-11-16T20:22:50.870Z,53.89
2022-11-16T20:27:52.970Z,53.77
2022-11-16T20:32:55.019Z,53.96
2022-11-16T20:37:56.936Z,54.00
2022-11-16T20:43:00.342Z,53.87
2022-11-16T20:48:02.350Z,53.90
2022-11-16T20:53:04.334Z,53.83
2022-11-16T20:58:06.347Z,54.05
2022-11-16T21:03:08.519Z,54.05
2022-11-16T21:08:11.881Z,53.80
2022-11-16T21:13:35.164Z,53.89
2022-11-16T21:18:38.192Z,53.51
2022-11-16T21:23:43.317Z,53.72
2022-11-16T21:28:45.754Z,53.25
2022-11-16T21:33:48.000Z,53.57
2022-11-16T21:38:50.367Z,53.61
2022-11-16T21:43:52.731Z,53.70
2022-11-16T21:48:56.834Z,53.75
2022-11-16T21:53:59.101Z,53.56
2022-11-16T21:59:01.067Z,53.80
2022-11-16T22:04:21.544Z,53.71
2022-11-16T22:09:23.774Z,53.64
2022-11-16T22:14:25.737Z,53.43
2022-11-16T22:19:27.721Z,53.23
2022-11-16T22:24:29.822Z,53.37
2022-11-16T22:29:31.836Z,53.43
2022-11-16T22:34:34.086Z,53.37
2022-11-16T22:39:36.939Z,53.42
2022-11-16T22:44:38.995Z,53.22
2022-11-16T22:49:41.141Z,53.26
2022-11-16T22:54:43.175Z,53.40
2022-11-16T22:59:45.233Z,53.28
2022-11-16T23:04:47.247Z,53.07
2022-11-16T23:09:49.320Z,53.21
2022-11-16T23:15:09.848Z,53.36
2022-11-16T23:20:30.710Z,53.30
2022-11-16T23:25:51.579Z,53.34
2022-11-16T23:30:53.616Z,53.28
2022-11-16T23:35:55.615Z,53.33
2022-11-16T23:40:57.544Z,53.36
2022-11-16T23:45:59.514Z,53.44
2022-11-16T23:51:01.458Z,53.16
2022-11-16T23:56:06.010Z,53.26
